»·PEaware :: N181DJ KSNA-KAVX

N181DJ :: KSNA-KAVX

FLIGHT INFORMATION

Flight Status: Arrived
Operator: Privately registered:
United States
More flights under this callsign
Pilot: Brian H. (29287)
Aircraft: PIPER PA-28 CHEROKEE ARCHER
(PA28)
More flights by this aircraft type
Origin: KSNA John Wayne-Orange Co
United States
Destination: KAVX Catalina
United States
More flights between these airports :: More routes between these airports
Route: +SLI V21 SXC
File this flight plan on PilotEdge
Remarks:
Altitude:
(Current/Filed)
3,000ft
Speed:
(Current/Filed)
115kts
Departed: 05-Nov-20 02:52 PM
Arrived: 05-Nov-20 03:24 PM
Distance/Time
Traveled:
32nm/0:32
Distance/Time
To Go:
Arrived

Flight Plot

Page will automatically refresh every two minutes.


Map Options




Map Legend


Flown Route
Filed Route
Departure Airport
Arrival Airport
Navaid (VOR, NDB)
Fix

Horizontal Profiles

Position Reports

Time Latitude Longitude Heading Altitude Ground
Speed
05-Nov-20 14:33 33.671191 -117.868026 211 61ft 0kts
05-Nov-20 14:34 33.671191 -117.868026 211 61ft 0kts
05-Nov-20 14:35 33.671191 -117.868026 211 61ft 0kts
05-Nov-20 14:36 33.671191 -117.868026 211 61ft 0kts
05-Nov-20 14:37 33.671191 -117.868026 211 61ft 0kts
05-Nov-20 14:38 33.671191 -117.868026 211 61ft 0kts
05-Nov-20 14:39 33.671191 -117.868026 211 61ft 0kts
05-Nov-20 14:40 33.671191 -117.868026 211 61ft 0kts
05-Nov-20 14:41 33.671191 -117.868026 211 61ft 0kts
05-Nov-20 14:42 33.671191 -117.868026 211 61ft 0kts
05-Nov-20 14:43 33.671191 -117.868026 211 61ft 0kts
05-Nov-20 14:44 33.671191 -117.868026 211 61ft 0kts
05-Nov-20 14:45 33.671191 -117.868026 211 61ft 0kts
05-Nov-20 14:46 33.671097 -117.868092 208 61ft 0kts
05-Nov-20 14:47 33.673394 -117.867018 8 61ft 23kts
05-Nov-20 14:48 33.677800 -117.864733 27 61ft 18kts
05-Nov-20 14:49 33.679976 -117.863661 300 61ft 0kts
05-Nov-20 14:50 33.679976 -117.863661 300 61ft 0kts
05-Nov-20 14:51 33.678272 -117.865326 208 61ft 57kts
05-Nov-20 14:52 33.661391 -117.882746 238 648ft 81kts
05-Nov-20 14:53 33.650319 -117.904366 238 1313ft 79kts
05-Nov-20 14:54 33.638338 -117.926947 241 1934ft 80kts
05-Nov-20 14:55 33.623968 -117.957201 241 2052ft 121kts
05-Nov-20 14:56 33.609285 -117.988134 241 2724ft 103kts
05-Nov-20 14:57 33.594445 -118.018298 237 3229ft 105kts
05-Nov-20 14:58 33.578082 -118.047764 237 3731ft 106kts
05-Nov-20 14:59 33.561026 -118.078540 237 4012ft 123kts
05-Nov-20 15:00 33.540968 -118.114833 237 4012ft 135kts
05-Nov-20 15:01 33.519924 -118.152772 238 4023ft 136kts
05-Nov-20 15:02 33.499465 -118.190935 237 4023ft 134kts
05-Nov-20 15:03 33.479300 -118.227036 238 4026ft 128kts
05-Nov-20 15:04 33.458944 -118.263810 240 4043ft 135kts
05-Nov-20 15:05 33.438646 -118.302372 239 4057ft 137kts
05-Nov-20 15:06 33.417805 -118.341261 238 4068ft 139kts
05-Nov-20 15:07 33.396734 -118.380206 238 4068ft 139kts
05-Nov-20 15:08 33.385591 -118.420631 315 4069ft 131kts
05-Nov-20 15:09 33.419360 -118.418644 17 4068ft 127kts
05-Nov-20 15:10 33.454382 -118.411001 8 4065ft 128kts
05-Nov-20 15:11 33.489965 -118.407681 5 4053ft 127kts
05-Nov-20 15:12 33.525257 -118.405090 347 4041ft 127kts
05-Nov-20 15:13 33.555266 -118.434114 321 3496ft 149kts
05-Nov-20 15:14 33.588926 -118.446778 55 2954ft 141kts
05-Nov-20 15:15 33.570133 -118.410356 139 2952ft 141kts
05-Nov-20 15:16 33.533038 -118.399687 177 2961ft 140kts
05-Nov-20 15:17 33.494107 -118.400213 184 2974ft 140kts
05-Nov-20 15:18 33.455404 -118.405151 186 2980ft 140kts
05-Nov-20 15:19 33.419655 -118.414215 206 2664ft 108kts
05-Nov-20 15:20 33.402244 -118.435908 259 2570ft 83kts
05-Nov-20 15:21 33.389813 -118.439764 40 2172ft 90kts
05-Nov-20 15:22 33.403620 -118.418093 52 1567ft 61kts
05-Nov-20 15:23 33.404752 -118.415038 179 1544ft 0kts

Navigation Log

Ident Type
Flight plan parsing failed, navigation log unavailable